Time;durP1;ratioP1;P1;durP2;ratioP2;P2;SDS_P1;SDS_P2;PMS_P1;PMS_P2;Temp;Humidity;BMP_temperature;BMP_pressure;BME280_temperature;BME280_humidity;BME280_pressure;Samples;Min_cycle;Max_cycle;Signal;HPM_P1;HPM_P2
2021/10/30 00:00:54;;;;;;;15.05;13.45;;;12.40;99.90;;;;;;5065717;28;20119;-73
2021/10/30 00:03:20;;;;;;;14.27;12.77;;;12.40;99.90;;;;;;5032610;28;20044;-73
2021/10/30 00:05:48;;;;;;;14.55;12.88;;;12.40;99.90;;;;;;5048899;28;20131;-73
2021/10/30 00:08:14;;;;;;;15.48;12.52;;;12.30;99.90;;;;;;5072751;28;20055;-73
2021/10/30 00:10:42;;;;;;;15.20;12.27;;;12.30;99.90;;;;;;5064005;28;20139;-73
2021/10/30 00:13:08;;;;;;;15.05;12.05;;;12.30;99.90;;;;;;5065930;28;20100;-73
2021/10/30 00:15:34;;;;;;;13.50;12.07;;;12.30;99.90;;;;;;5082983;28;20110;-74
2021/10/30 00:17:59;;;;;;;14.43;12.93;;;12.30;99.90;;;;;;5080675;28;20079;-74
2021/10/30 00:20:26;;;;;;;14.68;11.35;;;12.30;99.90;;;;;;5045816;28;20422;-71
2021/10/30 00:22:52;;;;;;;15.70;11.40;;;12.20;99.90;;;;;;5082059;28;20050;-71
2021/10/30 00:25:18;;;;;;;14.75;11.95;;;12.20;99.90;;;;;;5075513;28;20086;-72
2021/10/30 00:27:43;;;;;;;15.50;12.07;;;12.20;99.90;;;;;;5057305;28;20790;-71
2021/10/30 00:30:10;;;;;;;13.32;10.93;;;12.10;99.90;;;;;;5048590;28;20040;-71
2021/10/30 00:32:36;;;;;;;13.63;11.43;;;12.10;99.90;;;;;;5073399;28;20527;-71
2021/10/30 00:35:03;;;;;;;12.18;10.75;;;12.00;99.90;;;;;;5042855;28;20384;-71
2021/10/30 00:37:32;;;;;;;15.10;13.05;;;12.00;99.90;;;;;;5057017;28;20044;-71
2021/10/30 00:39:57;;;;;;;12.38;11.07;;;12.00;99.90;;;;;;5071073;28;20443;-71
2021/10/30 00:42:23;;;;;;;12.65;10.82;;;11.90;99.90;;;;;;5090135;28;20071;-71
2021/10/30 00:44:49;;;;;;;12.68;11.15;;;11.90;99.90;;;;;;5048616;28;20487;-71
2021/10/30 00:47:14;;;;;;;12.93;11.25;;;11.80;99.90;;;;;;5073664;28;20526;-70
2021/10/30 00:49:44;;;;;;;14.90;10.77;;;11.80;99.90;;;;;;5046769;28;20040;-70
2021/10/30 00:52:12;;;;;;;13.23;11.70;;;11.80;99.90;;;;;;5077263;28;20040;-70
2021/10/30 00:54:40;;;;;;;13.52;10.50;;;11.80;99.90;;;;;;5064569;28;20509;-70
2021/10/30 00:57:07;;;;;;;12.45;10.60;;;11.70;99.90;;;;;;5055942;28;20052;-70
2021/10/30 00:59:32;;;;;;;15.27;11.32;;;11.70;99.90;;;;;;5074633;28;20067;-70
2021/10/30 01:02:03;;;;;;;14.85;11.55;;;11.70;99.90;;;;;;5075306;28;20047;-70
2021/10/30 01:04:31;;;;;;;12.93;10.20;;;11.60;99.90;;;;;;5068301;28;20390;-71
2021/10/30 01:06:58;;;;;;;13.82;10.30;;;11.60;99.90;;;;;;5081188;28;20040;-70
2021/10/30 01:09:25;;;;;;;15.35;11.10;;;11.50;99.90;;;;;;5035300;28;20048;-70
2021/10/30 01:11:52;;;;;;;13.75;12.18;;;11.50;99.90;;;;;;5052599;28;20048;-70
2021/10/30 01:14:19;;;;;;;13.07;9.73;;;11.50;99.90;;;;;;5052688;28;20032;-70
2021/10/30 01:16:55;;;;;;;12.77;11.35;;;11.40;99.90;;;;;;5052514;28;20495;-71
2021/10/30 01:19:21;;;;;;;12.82;11.43;;;11.40;99.90;;;;;;5052696;28;20158;-70
2021/10/30 01:21:47;;;;;;;15.25;11.57;;;11.40;99.90;;;;;;5067885;28;20127;-71
2021/10/30 01:24:12;;;;;;;12.48;11.18;;;11.40;99.90;;;;;;5069248;28;20043;-70
2021/10/30 01:26:38;;;;;;;16.00;12.20;;;11.40;99.90;;;;;;5066969;28;20052;-70
2021/10/30 01:29:05;;;;;;;14.35;10.45;;;11.30;99.90;;;;;;5035340;28;20090;-70
2021/10/30 01:31:31;;;;;;;15.25;11.30;;;11.30;99.90;;;;;;5064258;28;20040;-70
2021/10/30 01:33:58;;;;;;;15.18;11.40;;;11.30;99.90;;;;;;5051648;28;20040;-70
2021/10/30 01:36:24;;;;;;;15.73;12.27;;;11.30;99.90;;;;;;5065880;28;20045;-70
2021/10/30 01:38:51;;;;;;;13.65;11.55;;;11.20;99.90;;;;;;5065506;28;20055;-71
2021/10/30 01:41:21;;;;;;;16.10;11.98;;;11.20;99.90;;;;;;5035217;28;20131;-70
2021/10/30 01:43:47;;;;;;;16.90;11.65;;;11.20;99.90;;;;;;5068498;28;20072;-71
2021/10/30 01:46:13;;;;;;;15.18;11.52;;;11.20;99.90;;;;;;5044623;28;20040;-71
2021/10/30 01:48:39;;;;;;;13.95;12.40;;;11.20;99.90;;;;;;5051476;28;20120;-71
2021/10/30 01:51:05;;;;;;;13.88;11.60;;;11.10;99.90;;;;;;5051899;28;20044;-71
2021/10/30 01:53:33;;;;;;;14.18;12.68;;;11.20;99.90;;;;;;5068249;28;20033;-71
2021/10/30 01:56:02;;;;;;;14.20;12.35;;;11.10;99.90;;;;;;5049830;28;20060;-71
2021/10/30 01:58:34;;;;;;;16.33;12.70;;;11.10;99.90;;;;;;5051931;28;20033;-71
2021/10/30 02:01:01;;;;;;;18.92;15.35;;;11.10;99.90;;;;;;5033155;28;20309;-71
2021/10/30 02:03:29;;;;;;;18.13;14.48;;;11.00;99.90;;;;;;5045019;28;20127;-71
2021/10/30 02:05:56;;;;;;;19.40;15.20;;;11.00;99.90;;;;;;5067836;28;20161;-71
2021/10/30 02:08:22;;;;;;;17.90;14.77;;;11.00;99.90;;;;;;5009568;28;20604;-71
2021/10/30 02:10:48;;;;;;;17.52;15.13;;;11.00;99.90;;;;;;5066299;28;20052;-71
2021/10/30 02:13:15;;;;;;;16.65;13.63;;;11.00;99.90;;;;;;5050429;28;20505;-71
2021/10/30 02:15:41;;;;;;;19.10;15.80;;;11.00;99.90;;;;;;5069663;28;20127;-71
2021/10/30 02:18:08;;;;;;;17.73;15.82;;;11.00;99.90;;;;;;5068483;28;20045;-71
2021/10/30 02:20:34;;;;;;;21.80;16.77;;;11.00;99.90;;;;;;5050581;28;20044;-71
2021/10/30 02:23:00;;;;;;;17.48;15.50;;;11.00;99.90;;;;;;5063593;28;20048;-71
2021/10/30 02:25:26;;;;;;;17.92;15.85;;;10.90;99.90;;;;;;5050495;28;20040;-73
2021/10/30 02:27:53;;;;;;;16.25;14.55;;;11.00;99.90;;;;;;5065451;28;20044;-73
2021/10/30 02:30:19;;;;;;;19.73;16.00;;;10.90;99.90;;;;;;5049397;28;20075;-73
2021/10/30 02:32:45;;;;;;;17.92;14.90;;;10.90;99.90;;;;;;5067994;28;20060;-73
2021/10/30 02:35:12;;;;;;;17.00;14.95;;;10.90;99.90;;;;;;5050191;28;20094;-73
2021/10/30 02:37:38;;;;;;;21.10;16.13;;;10.90;99.90;;;;;;5049723;28;20044;-73
2021/10/30 02:40:05;;;;;;;17.38;15.02;;;10.80;99.90;;;;;;5067323;28;20028;-73
2021/10/30 02:42:31;;;;;;;17.50;14.82;;;10.90;99.90;;;;;;5061545;28;20128;-73
2021/10/30 02:44:59;;;;;;;18.13;14.88;;;10.90;99.90;;;;;;5051020;28;20039;-74
2021/10/30 02:47:26;;;;;;;20.20;17.10;;;10.80;99.90;;;;;;5050854;28;20041;-73
2021/10/30 02:49:52;;;;;;;19.90;15.00;;;10.80;99.90;;;;;;5064899;28;20797;-73
2021/10/30 02:52:18;;;;;;;18.38;15.07;;;10.80;99.90;;;;;;5064634;28;20052;-71
2021/10/30 02:54:44;;;;;;;19.63;15.80;;;10.80;99.90;;;;;;5048915;28;20040;-71
2021/10/30 02:57:09;;;;;;;19.77;15.95;;;10.80;99.90;;;;;;5063985;28;20041;-71
2021/10/30 02:59:35;;;;;;;17.80;15.85;;;10.80;99.90;;;;;;5050789;28;20051;-71
2021/10/30 03:02:01;;;;;;;17.52;15.65;;;10.70;99.90;;;;;;5067331;28;20040;-71
2021/10/30 03:04:27;;;;;;;18.98;15.73;;;10.80;99.90;;;;;;5051351;28;20032;-71
2021/10/30 03:06:53;;;;;;;18.10;15.23;;;10.70;99.90;;;;;;5050195;28;20423;-71
2021/10/30 03:09:19;;;;;;;18.80;15.48;;;10.70;99.90;;;;;;5066983;28;20067;-71
2021/10/30 03:11:45;;;;;;;19.52;16.85;;;10.80;99.90;;;;;;5050628;28;20049;-71
2021/10/30 03:14:11;;;;;;;19.20;16.08;;;10.80;99.90;;;;;;5050261;28;20087;-71
2021/10/30 03:16:37;;;;;;;18.77;15.73;;;10.80;99.90;;;;;;5067265;28;20048;-71
2021/10/30 03:19:03;;;;;;;19.50;16.30;;;10.80;99.90;;;;;;5065379;28;20427;-71
2021/10/30 03:21:29;;;;;;;18.77;16.77;;;10.80;99.90;;;;;;5047329;28;20051;-71
2021/10/30 03:23:55;;;;;;;21.75;15.98;;;10.80;99.90;;;;;;5060460;28;20048;-71
2021/10/30 03:26:21;;;;;;;18.63;16.10;;;10.80;99.90;;;;;;5046324;28;20761;-71
2021/10/30 03:28:47;;;;;;;17.80;15.15;;;10.80;99.90;;;;;;5066000;28;20044;-71
2021/10/30 03:31:13;;;;;;;20.60;17.15;;;10.80;99.90;;;;;;5047268;28;20041;-71
2021/10/30 03:33:39;;;;;;;23.13;17.95;;;10.80;99.90;;;;;;5049834;28;20054;-71
2021/10/30 03:36:05;;;;;;;16.98;14.88;;;10.70;99.90;;;;;;5047217;28;20067;-71
2021/10/30 03:38:31;;;;;;;19.35;16.30;;;10.70;99.90;;;;;;5050028;28;20040;-71
2021/10/30 03:40:57;;;;;;;23.17;16.27;;;10.70;99.90;;;;;;5066710;28;20533;-71
2021/10/30 03:43:22;;;;;;;18.75;15.80;;;10.70;99.90;;;;;;5049542;28;20041;-71
2021/10/30 03:45:48;;;;;;;21.90;17.08;;;10.70;99.90;;;;;;5065624;28;20649;-71
2021/10/30 03:48:17;;;;;;;20.00;16.00;;;10.60;99.90;;;;;;5048988;28;20654;-71
2021/10/30 03:50:45;;;;;;;22.42;17.67;;;10.60;99.90;;;;;;5047443;28;20495;-71
2021/10/30 03:53:11;;;;;;;18.92;15.98;;;10.60;99.90;;;;;;5047192;28;20036;-71
2021/10/30 03:55:37;;;;;;;18.70;15.90;;;10.50;99.90;;;;;;5046833;28;20045;-72
2021/10/30 03:58:04;;;;;;;21.98;16.48;;;10.60;99.90;;;;;;5027122;28;20373;-71
2021/10/30 04:00:29;;;;;;;23.17;18.10;;;10.50;99.90;;;;;;5043663;28;20060;-71
2021/10/30 04:02:55;;;;;;;21.25;17.25;;;10.50;99.90;;;;;;5067263;28;20044;-71
2021/10/30 04:05:22;;;;;;;21.05;16.20;;;10.40;99.90;;;;;;5067087;28;20437;-71
2021/10/30 04:07:48;;;;;;;22.25;17.90;;;10.40;99.90;;;;;;5071183;28;20040;-71
2021/10/30 04:10:15;;;;;;;23.00;18.80;;;10.40;99.90;;;;;;5070839;28;20044;-71
2021/10/30 04:12:41;;;;;;;22.80;19.05;;;10.40;99.90;;;;;;5088096;28;20105;-72
2021/10/30 04:15:08;;;;;;;24.77;19.80;;;10.40;99.90;;;;;;5070899;28;20464;-72
2021/10/30 04:17:33;;;;;;;24.10;18.63;;;10.40;99.90;;;;;;5071137;28;20058;-72
2021/10/30 04:19:59;;;;;;;25.63;19.48;;;10.40;99.90;;;;;;5071423;28;20051;-71
2021/10/30 04:22:25;;;;;;;24.70;20.13;;;10.30;99.90;;;;;;5087977;28;20036;-71
2021/10/30 04:24:51;;;;;;;27.55;20.98;;;10.30;99.90;;;;;;5071480;28;20040;-71
2021/10/30 04:27:17;;;;;;;24.75;21.10;;;10.30;99.90;;;;;;5035183;28;20052;-71
2021/10/30 04:29:42;;;;;;;27.83;22.95;;;10.30;99.90;;;;;;5044270;28;20476;-71
2021/10/30 04:32:10;;;;;;;31.75;24.83;;;10.30;99.90;;;;;;5041314;28;20513;-72
2021/10/30 04:37:15;;;;;;;30.90;24.92;;;10.40;99.90;;;;;;5063716;28;20041;-71
2021/10/30 04:39:42;;;;;;;36.00;26.75;;;10.40;99.90;;;;;;5085225;28;20600;-71
2021/10/30 04:42:08;;;;;;;32.70;26.77;;;10.50;99.90;;;;;;5077567;28;20514;-71
2021/10/30 04:44:33;;;;;;;33.65;25.77;;;10.50;99.90;;;;;;5088232;28;20082;-71
2021/10/30 04:47:06;;;;;;;34.22;27.25;;;10.50;99.90;;;;;;5071338;28;20506;-71
2021/10/30 04:49:34;;;;;;;36.97;27.13;;;10.60;99.90;;;;;;5087511;28;20044;-71
2021/10/30 04:51:59;;;;;;;36.17;27.02;;;10.50;99.90;;;;;;5041837;28;20410;-71
2021/10/30 04:54:25;;;;;;;35.63;27.38;;;10.50;99.90;;;;;;5034296;28;20054;-71
2021/10/30 04:56:51;;;;;;;38.67;28.45;;;10.60;99.90;;;;;;5046912;28;20052;-71
2021/10/30 04:59:17;;;;;;;35.42;28.70;;;10.60;99.90;;;;;;5030699;28;20041;-71
2021/10/30 05:01:43;;;;;;;38.85;28.58;;;10.60;99.90;;;;;;5032971;28;20044;-71
2021/10/30 05:04:08;;;;;;;36.55;26.88;;;10.60;99.90;;;;;;5051059;28;20041;-71
2021/10/30 05:06:34;;;;;;;42.80;31.85;;;10.60;99.90;;;;;;5067613;28;20048;-71
2021/10/30 05:09:00;;;;;;;41.78;31.63;;;10.60;99.90;;;;;;5033487;28;20052;-72
2021/10/30 05:11:26;;;;;;;38.85;29.77;;;10.60;99.90;;;;;;5034158;28;20048;-71
2021/10/30 05:13:51;;;;;;;37.53;30.35;;;10.60;99.90;;;;;;5054008;28;20475;-71
2021/10/30 05:16:17;;;;;;;37.80;30.20;;;10.70;99.90;;;;;;5070547;28;20058;-71
2021/10/30 05:18:43;;;;;;;38.20;30.00;;;10.70;99.90;;;;;;5067416;28;20119;-71
2021/10/30 05:21:09;;;;;;;42.85;30.83;;;10.70;99.90;;;;;;5067903;28;20077;-71
2021/10/30 05:23:37;;;;;;;37.42;30.55;;;10.70;99.90;;;;;;5050089;28;20040;-71
2021/10/30 05:26:03;;;;;;;38.47;31.40;;;10.70;99.90;;;;;;5034148;28;20135;-71
2021/10/30 05:28:32;;;;;;;40.20;31.85;;;10.70;99.90;;;;;;5053642;28;20453;-72
2021/10/30 05:31:01;;;;;;;39.83;31.95;;;10.70;99.90;;;;;;5053377;28;20055;-71
2021/10/30 05:33:27;;;;;;;40.60;30.35;;;10.80;99.90;;;;;;5070402;28;20156;-71
2021/10/30 05:35:56;;;;;;;44.70;30.25;;;10.80;99.90;;;;;;5070149;28;20458;-71
2021/10/30 05:38:22;;;;;;;37.85;30.75;;;10.80;99.90;;;;;;5066566;28;20052;-71
2021/10/30 05:40:48;;;;;;;35.42;28.90;;;10.90;99.90;;;;;;5045194;28;20040;-71
2021/10/30 05:43:15;;;;;;;32.70;27.92;;;10.90;99.90;;;;;;5020462;28;20036;-71
2021/10/30 05:45:46;;;;;;;30.27;26.90;;;10.90;99.90;;;;;;5070261;28;20106;-71
2021/10/30 05:48:14;;;;;;;32.58;26.52;;;10.90;99.90;;;;;;5070099;28;20111;-71
2021/10/30 05:50:41;;;;;;;30.77;25.92;;;10.90;99.90;;;;;;5068758;28;20067;-71
2021/10/30 05:53:07;;;;;;;32.13;25.52;;;11.00;99.90;;;;;;5052064;28;20090;-71
2021/10/30 05:55:33;;;;;;;28.77;25.33;;;11.00;99.90;;;;;;5067800;28;20307;-71
2021/10/30 05:57:59;;;;;;;30.20;25.38;;;11.00;99.90;;;;;;5035554;28;20471;-71
2021/10/30 06:00:26;;;;;;;30.52;25.25;;;11.10;99.90;;;;;;5053092;28;20040;-71
2021/10/30 06:02:52;;;;;;;31.00;24.02;;;11.10;99.90;;;;;;5053564;28;20190;-74
2021/10/30 06:05:18;;;;;;;30.25;23.60;;;11.10;99.90;;;;;;5052822;28;20539;-74
2021/10/30 06:07:44;;;;;;;30.40;22.85;;;11.10;99.90;;;;;;5075912;28;20438;-73
2021/10/30 06:10:10;;;;;;;27.42;22.30;;;11.10;99.90;;;;;;5076189;28;20048;-73
2021/10/30 06:12:39;;;;;;;24.77;22.02;;;11.10;99.90;;;;;;5092735;28;20179;-74
2021/10/30 06:15:07;;;;;;;26.92;21.80;;;11.10;99.90;;;;;;5093620;28;20055;-71
2021/10/30 06:17:32;;;;;;;26.05;21.40;;;11.10;99.90;;;;;;5093414;28;20039;-71
2021/10/30 06:20:02;;;;;;;24.48;20.85;;;11.10;99.90;;;;;;5076194;28;20066;-71
2021/10/30 06:22:28;;;;;;;20.97;18.67;;;11.10;99.90;;;;;;5074031;28;20128;-71
2021/10/30 06:24:53;;;;;;;22.70;19.77;;;11.10;99.90;;;;;;5073564;28;20105;-71
2021/10/30 06:27:19;;;;;;;20.83;18.52;;;11.10;99.90;;;;;;5068558;28;20137;-71
2021/10/30 06:29:45;;;;;;;23.75;19.90;;;11.20;99.90;;;;;;5062573;28;20622;-71
2021/10/30 06:32:11;;;;;;;20.20;17.55;;;11.10;99.90;;;;;;5064338;28;20058;-71
2021/10/30 06:34:37;;;;;;;22.05;18.45;;;11.20;99.90;;;;;;5093093;28;20042;-71
2021/10/30 06:37:03;;;;;;;22.20;17.88;;;11.10;99.90;;;;;;5050819;28;20058;-72
2021/10/30 06:39:32;;;;;;;19.83;16.85;;;11.10;99.90;;;;;;5039851;28;20102;-71
2021/10/30 06:42:01;;;;;;;19.03;16.90;;;11.10;99.90;;;;;;5091359;28;20054;-71
2021/10/30 06:44:27;;;;;;;21.63;16.65;;;11.10;99.90;;;;;;5082688;28;20036;-71
2021/10/30 06:46:53;;;;;;;20.55;16.63;;;11.10;99.90;;;;;;5072654;28;20620;-71
2021/10/30 06:49:20;;;;;;;18.65;15.77;;;11.10;99.90;;;;;;5092622;28;20089;-71
2021/10/30 06:51:47;;;;;;;16.23;14.48;;;11.20;99.90;;;;;;5074865;28;20032;-71
2021/10/30 06:54:13;;;;;;;18.80;15.63;;;11.20;99.90;;;;;;5075915;28;20039;-71
2021/10/30 06:56:40;;;;;;;18.17;15.05;;;11.10;99.90;;;;;;5090462;28;20511;-71
2021/10/30 06:59:07;;;;;;;17.48;14.32;;;11.10;99.90;;;;;;5056868;28;20051;-71
2021/10/30 07:01:35;;;;;;;17.73;14.07;;;11.20;99.90;;;;;;5083828;28;20042;-71
2021/10/30 07:04:01;;;;;;;18.77;13.85;;;11.20;99.90;;;;;;5124149;27;20516;-71
2021/10/30 07:06:27;;;;;;;17.75;14.40;;;11.20;99.90;;;;;;5069126;28;20044;-71
2021/10/30 07:08:56;;;;;;;15.82;14.00;;;11.20;99.90;;;;;;5058750;28;20100;-71
2021/10/30 07:11:22;;;;;;;16.45;13.70;;;11.20;99.90;;;;;;5100949;28;20051;-71
2021/10/30 07:13:48;;;;;;;18.30;14.35;;;11.20;99.90;;;;;;5072062;28;20048;-72
2021/10/30 07:16:15;;;;;;;16.67;14.15;;;11.20;99.90;;;;;;5083776;28;20051;-71
2021/10/30 07:18:42;;;;;;;18.55;13.57;;;11.20;99.90;;;;;;5075071;28;20093;-71
2021/10/30 07:21:08;;;;;;;16.42;13.88;;;11.20;99.90;;;;;;5075075;28;20075;-71
2021/10/30 07:23:33;;;;;;;19.98;14.10;;;11.20;99.90;;;;;;5078638;28;20070;-71
2021/10/30 07:26:00;;;;;;;17.88;13.98;;;11.20;99.90;;;;;;5055969;28;20048;-71
2021/10/30 07:28:26;;;;;;;16.92;14.60;;;11.20;99.90;;;;;;5071102;28;20566;-71
2021/10/30 07:30:52;;;;;;;16.52;14.35;;;11.20;99.90;;;;;;5070856;28;20490;-70
2021/10/30 07:33:17;;;;;;;17.55;14.32;;;11.20;99.90;;;;;;5125469;27;20043;-71
2021/10/30 07:35:44;;;;;;;16.13;13.48;;;11.10;99.90;;;;;;5102513;28;20050;-71
2021/10/30 07:38:10;;;;;;;20.05;14.73;;;11.10;99.90;;;;;;5060661;28;20048;-70
2021/10/30 07:40:36;;;;;;;19.55;14.88;;;11.10;99.90;;;;;;5063809;28;20052;-71
2021/10/30 07:43:02;;;;;;;20.85;16.00;;;11.10;99.90;;;;;;5072161;28;20047;-70
2021/10/30 07:45:30;;;;;;;18.25;15.23;;;11.10;99.90;;;;;;5110491;27;20036;-71
2021/10/30 07:47:57;;;;;;;16.98;14.85;;;11.10;99.90;;;;;;5061084;28;20141;-71
2021/10/30 07:50:24;;;;;;;19.05;15.13;;;11.10;99.90;;;;;;5043176;27;20085;-71
2021/10/30 07:52:50;;;;;;;20.27;15.88;;;11.10;99.90;;;;;;5079683;28;20047;-70
2021/10/30 07:55:17;;;;;;;20.58;15.20;;;11.10;99.90;;;;;;5063856;28;20044;-71
2021/10/30 07:57:42;;;;;;;24.05;16.38;;;11.10;99.90;;;;;;5064504;28;20062;-71
2021/10/30 08:00:09;;;;;;;19.58;15.60;;;11.10;99.90;;;;;;5066064;28;20035;-71
2021/10/30 08:02:38;;;;;;;20.80;15.57;;;11.10;99.90;;;;;;5079255;28;20047;-70
2021/10/30 08:05:05;;;;;;;19.17;15.43;;;11.10;99.90;;;;;;5081822;28;20052;-71
2021/10/30 08:07:33;;;;;;;20.55;14.88;;;11.10;99.90;;;;;;5082201;28;20664;-70
2021/10/30 08:10:04;;;;;;;18.40;15.32;;;11.10;99.90;;;;;;5068252;28;20046;-70
2021/10/30 08:12:31;;;;;;;23.58;15.93;;;11.10;99.90;;;;;;5075597;28;20100;-70
2021/10/30 08:14:56;;;;;;;18.27;14.75;;;11.00;99.90;;;;;;5060963;28;20051;-70
2021/10/30 08:17:22;;;;;;;23.35;16.63;;;11.10;99.90;;;;;;5084491;28;20714;-71
2021/10/30 08:19:48;;;;;;;19.83;16.35;;;11.10;99.90;;;;;;5047458;28;20048;-70
2021/10/30 08:22:17;;;;;;;20.45;16.48;;;11.00;99.90;;;;;;5050955;28;20122;-71
2021/10/30 08:24:45;;;;;;;19.77;15.65;;;11.10;99.90;;;;;;5068435;28;20095;-70
2021/10/30 08:27:12;;;;;;;22.02;16.63;;;11.10;99.90;;;;;;5062458;28;20075;-71
2021/10/30 08:29:38;;;;;;;23.48;16.90;;;11.10;99.90;;;;;;5081028;28;20035;-71
2021/10/30 08:32:06;;;;;;;20.05;15.82;;;11.10;99.90;;;;;;5078025;28;20054;-70
2021/10/30 08:34:32;;;;;;;23.05;16.40;;;11.10;99.90;;;;;;5084740;28;20039;-71
2021/10/30 08:36:58;;;;;;;18.80;16.13;;;11.10;99.90;;;;;;5063207;28;20101;-71
2021/10/30 08:39:26;;;;;;;21.25;16.48;;;11.10;99.90;;;;;;5081373;28;20040;-70
2021/10/30 08:41:53;;;;;;;21.58;16.60;;;11.20;99.90;;;;;;5068902;28;20501;-72
2021/10/30 08:44:20;;;;;;;24.20;17.02;;;11.20;99.90;;;;;;5055483;28;20078;-71
2021/10/30 08:46:50;;;;;;;19.63;15.88;;;11.20;99.90;;;;;;5060265;28;20092;-71
2021/10/30 08:49:17;;;;;;;18.47;15.10;;;11.20;99.90;;;;;;5066953;28;20046;-70
2021/10/30 08:51:43;;;;;;;19.10;14.63;;;11.30;99.90;;;;;;5069745;28;20039;-70
2021/10/30 08:54:11;;;;;;;20.73;14.43;;;11.30;99.90;;;;;;5070492;28;20106;-71
2021/10/30 08:56:39;;;;;;;19.65;16.48;;;11.30;99.90;;;;;;5066314;28;20092;-71
2021/10/30 08:59:08;;;;;;;18.73;14.77;;;11.30;99.90;;;;;;5081198;28;20053;-71
2021/10/30 09:01:48;;;;;;;19.15;15.63;;;11.30;99.90;;;;;;5069464;28;20050;-71
2021/10/30 09:04:18;;;;;;;20.25;15.50;;;11.40;99.90;;;;;;5086881;27;20065;-71
2021/10/30 09:07:01;;;;;;;17.45;15.48;;;11.30;99.90;;;;;;5072076;28;20047;-71
2021/10/30 09:09:31;;;;;;;17.60;13.93;;;11.40;99.90;;;;;;5096716;27;20052;-71
2021/10/30 09:11:59;;;;;;;17.75;14.20;;;11.50;99.90;;;;;;5085706;28;20075;-72
2021/10/30 09:14:28;;;;;;;22.90;15.35;;;11.50;99.90;;;;;;5081139;28;20438;-71
2021/10/30 09:17:14;;;;;;;17.55;14.18;;;11.50;99.90;;;;;;5069842;28;20096;-71
2021/10/30 09:19:52;;;;;;;17.95;15.00;;;11.60;99.90;;;;;;5081395;28;20536;-71
2021/10/30 09:22:23;;;;;;;16.85;14.57;;;11.60;99.90;;;;;;5084064;28;20050;-72
2021/10/30 09:24:58;;;;;;;19.15;15.05;;;11.70;99.90;;;;;;5064111;28;20105;-71
2021/10/30 09:28:02;;;;;;;20.55;15.02;;;11.70;99.90;;;;;;5103386;28;20140;-71
2021/10/30 09:30:32;;;;;;;21.08;13.93;;;11.70;99.90;;;;;;5047258;28;20063;-72
2021/10/30 09:32:59;;;;;;;18.67;14.07;;;11.80;99.90;;;;;;5063394;28;20055;-71
2021/10/30 09:35:27;;;;;;;15.50;13.85;;;11.80;99.90;;;;;;5081740;28;20125;-72
2021/10/30 09:37:53;;;;;;;15.57;13.93;;;11.90;99.90;;;;;;5072657;28;20036;-71
2021/10/30 09:40:25;;;;;;;14.25;12.57;;;11.90;99.90;;;;;;5084639;28;20059;-72
2021/10/30 09:43:08;;;;;;;18.05;13.57;;;12.00;99.90;;;;;;5075549;27;20043;-71
2021/10/30 09:45:48;;;;;;;18.23;13.48;;;12.00;99.90;;;;;;5076135;28;20464;-72
2021/10/30 09:48:26;;;;;;;15.32;12.07;;;12.10;99.90;;;;;;5086062;28;20062;-72
2021/10/30 09:50:54;;;;;;;14.85;13.05;;;12.10;99.90;;;;;;5074877;28;20035;-72
2021/10/30 09:53:28;;;;;;;15.30;12.30;;;12.20;99.90;;;;;;5095127;27;20703;-71
2021/10/30 09:56:05;;;;;;;15.15;11.52;;;12.20;99.90;;;;;;5093296;27;20565;-72
2021/10/30 09:58:43;;;;;;;14.80;10.75;;;12.30;99.90;;;;;;5074171;28;20040;-71
2021/10/30 10:01:19;;;;;;;13.02;10.90;;;12.30;99.90;;;;;;5066296;28;20075;-72
2021/10/30 10:03:48;;;;;;;14.63;11.43;;;12.40;99.90;;;;;;5082733;28;20047;-71
2021/10/30 10:06:17;;;;;;;14.85;11.80;;;12.40;99.90;;;;;;5080801;28;20058;-71
2021/10/30 10:08:44;;;;;;;13.30;11.23;;;12.40;99.90;;;;;;5064885;28;20133;-71
2021/10/30 10:11:16;;;;;;;12.95;10.57;;;12.40;99.90;;;;;;5048705;28;20532;-72
2021/10/30 10:13:49;;;;;;;12.40;10.38;;;12.50;99.90;;;;;;5080174;28;20123;-72
2021/10/30 10:16:22;;;;;;;13.60;10.50;;;12.50;99.90;;;;;;5066265;28;20101;-71
2021/10/30 10:18:53;;;;;;;13.38;10.68;;;12.50;99.90;;;;;;5064783;28;20657;-71
2021/10/30 10:21:20;;;;;;;;;;;12.50;99.90;;;;;;5075436;28;20619;-71
2021/10/30 10:23:50;;;;;;;12.77;9.73;;;12.50;99.90;;;;;;5101660;28;20442;-71
2021/10/30 10:26:16;;;;;;;12.32;9.90;;;12.50;99.90;;;;;;5067527;28;20058;-71
2021/10/30 10:28:49;;;;;;;12.00;9.93;;;12.50;99.90;;;;;;5098771;28;20054;-70
2021/10/30 10:31:24;;;;;;;12.80;10.23;;;12.50;99.90;;;;;;5064597;28;20067;-72
2021/10/30 10:34:11;;;;;;;13.65;10.18;;;12.50;99.90;;;;;;5074051;28;20047;-71
2021/10/30 10:36:39;;;;;;;11.00;9.70;;;12.60;99.90;;;;;;5110245;27;20035;-72
2021/10/30 10:39:04;;;;;;;12.45;9.35;;;12.60;99.90;;;;;;5078885;28;20998;-71
2021/10/30 10:41:43;;;;;;;10.57;9.48;;;12.60;99.90;;;;;;5071968;28;20068;-71
2021/10/30 10:44:11;;;;;;;12.27;9.90;;;12.60;99.90;;;;;;5085282;28;20060;-72
2021/10/30 10:46:45;;;;;;;12.27;10.20;;;12.60;99.90;;;;;;5082374;28;20040;-71
2021/10/30 10:49:31;;;;;;;10.73;9.35;;;12.60;99.90;;;;;;5071251;28;20047;-72
2021/10/30 10:52:13;;;;;;;15.43;9.95;;;12.60;99.90;;;;;;5085938;28;20498;-72
2021/10/30 10:55:08;;;;;;;12.43;9.82;;;12.60;99.90;;;;;;5078996;28;20055;-71
2021/10/30 10:57:49;;;;;;;10.00;8.70;;;12.70;99.90;;;;;;5064058;28;20452;-71
2021/10/30 11:00:18;;;;;;;12.93;9.40;;;12.60;99.90;;;;;;5114182;27;20054;-71
2021/10/30 11:02:49;;;;;;;10.63;9.38;;;12.60;99.90;;;;;;5057291;28;20054;-71
2021/10/30 11:05:18;;;;;;;12.93;10.23;;;12.60;99.90;;;;;;5112449;27;20576;-72
2021/10/30 11:07:59;;;;;;;11.27;9.68;;;12.60;99.90;;;;;;5072075;28;20048;-71
2021/10/30 11:10:32;;;;;;;;;;;12.60;99.90;;;;;;5062970;28;20036;-71
2021/10/30 11:13:04;;;;;;;13.52;11.05;;;12.60;99.90;;;;;;5070450;28;19926;-72
2021/10/30 11:15:52;;;;;;;12.85;9.85;;;12.60;99.90;;;;;;5076599;28;20040;-71
2021/10/30 11:21:16;;;;;;;14.65;10.70;;;12.60;99.90;;;;;;5104683;28;20090;-72
2021/10/30 11:23:45;;;;;;;10.95;9.77;;;12.50;99.90;;;;;;5059457;28;20059;-72
2021/10/30 11:26:16;;;;;;;15.88;11.18;;;12.50;99.90;;;;;;5054888;28;20055;-72
2021/10/30 11:28:41;;;;;;;13.75;10.35;;;12.50;99.90;;;;;;5076172;28;20047;-71
2021/10/30 11:31:17;;;;;;;14.82;10.70;;;12.50;99.90;;;;;;5070503;28;20048;-72
2021/10/30 11:33:44;;;;;;;13.60;10.00;;;12.60;99.90;;;;;;5065453;28;20497;-72
2021/10/30 11:36:14;;;;;;;11.65;10.35;;;12.60;99.90;;;;;;5073184;28;20455;-72
2021/10/30 11:38:46;;;;;;;13.77;10.13;;;12.60;99.90;;;;;;5101383;28;20048;-72
2021/10/30 11:41:16;;;;;;;14.70;10.93;;;12.60;99.90;;;;;;5114377;27;20059;-71
2021/10/30 11:43:47;;;;;;;12.90;10.35;;;12.60;99.90;;;;;;5063161;28;20036;-71
2021/10/30 11:46:16;;;;;;;11.57;9.65;;;12.70;99.90;;;;;;5068432;28;20143;-71
2021/10/30 11:48:47;;;;;;;12.95;10.00;;;12.60;99.90;;;;;;5086572;28;20045;-72
2021/10/30 11:51:15;;;;;;;12.05;10.27;;;12.70;99.90;;;;;;5085141;28;20046;-71
2021/10/30 11:53:46;;;;;;;12.82;10.20;;;12.70;99.90;;;;;;5066754;28;20043;-72
2021/10/30 11:56:14;;;;;;;11.25;9.45;;;12.70;99.90;;;;;;5081109;28;20068;-72
2021/10/30 11:58:40;;;;;;;15.75;9.77;;;12.70;99.90;;;;;;5048264;28;20355;-72
2021/10/30 12:01:39;;;;;;;9.88;8.70;;;12.80;99.90;;;;;;5065653;28;20048;-72
2021/10/30 12:04:20;;;;;;;12.27;9.68;;;12.80;99.90;;;;;;5084147;28;20044;-72
2021/10/30 12:07:00;;;;;;;12.88;10.68;;;12.80;99.90;;;;;;5074093;28;20040;-72
2021/10/30 12:09:31;;;;;;;12.10;10.82;;;12.80;99.90;;;;;;5034913;28;20097;-71
2021/10/30 12:12:04;;;;;;;12.65;10.00;;;12.80;99.90;;;;;;5061538;28;20073;-70
2021/10/30 12:14:36;;;;;;;11.20;9.45;;;12.80;99.90;;;;;;5080758;28;20058;-71
2021/10/30 12:17:10;;;;;;;12.88;10.18;;;12.80;99.90;;;;;;5070621;28;20043;-71
2021/10/30 12:19:37;;;;;;;11.57;9.30;;;12.80;99.90;;;;;;5073270;28;20052;-71
2021/10/30 12:22:18;;;;;;;10.20;9.15;;;12.90;99.90;;;;;;5061068;28;20058;-71
2021/10/30 12:24:44;;;;;;;9.90;8.60;;;12.90;99.90;;;;;;5085582;28;20052;-71
2021/10/30 12:27:10;;;;;;;13.15;8.70;;;12.90;99.90;;;;;;5080030;28;20059;-71
2021/10/30 12:29:44;;;;;;;11.25;9.13;;;12.90;99.90;;;;;;5070468;28;20051;-72
2021/10/30 12:32:15;;;;;;;9.93;8.30;;;12.90;99.90;;;;;;5054373;28;20052;-72
2021/10/30 12:35:03;;;;;;;10.00;8.80;;;13.00;99.90;;;;;;5070900;28;20126;-72
2021/10/30 12:37:31;;;;;;;10.50;8.73;;;13.00;99.90;;;;;;5074080;28;20537;-72
2021/10/30 12:40:07;;;;;;;12.45;9.60;;;13.00;99.90;;;;;;5070871;28;20054;-71